Time;durP1;ratioP1;P1;durP2;ratioP2;P2;SDS_P1;SDS_P2;PMS_P1;PMS_P2;Temp;Humidity;BMP_temperature;BMP_pressure;BME280_temperature;BME280_humidity;BME280_pressure;Samples;Min_cycle;Max_cycle;Signal;HPM_P1;HPM_P2
2023/08/19 00:01:16;;;;;;;8.97;6.77;;;23.70;99.90;;;;;;6100879;23;20434;-76
2023/08/19 00:03:45;;;;;;;9.87;6.47;;;23.70;99.90;;;;;;6126109;23;20455;-77
2023/08/19 00:06:32;;;;;;;6.87;6.20;;;23.70;99.90;;;;;;6112085;23;20410;-78
2023/08/19 00:11:39;;;;;;;7.50;6.20;;;23.70;99.90;;;;;;6238336;23;20462;-76
2023/08/19 00:14:05;;;;;;;6.57;5.27;;;23.60;99.90;;;;;;6212455;23;20393;-77
2023/08/19 00:16:36;;;;;;;7.80;6.33;;;23.60;99.90;;;;;;6212960;23;20361;-77
2023/08/19 00:19:03;;;;;;;7.13;6.13;;;23.50;99.90;;;;;;6187259;23;20449;-76
2023/08/19 00:21:29;;;;;;;9.43;6.40;;;23.50;99.90;;;;;;6188826;23;20397;-76
2023/08/19 00:23:59;;;;;;;6.17;5.57;;;23.40;99.90;;;;;;6214337;23;20380;-75
2023/08/19 00:26:25;;;;;;;9.70;7.10;;;23.40;99.90;;;;;;6211811;23;20373;-77
2023/08/19 00:28:54;;;;;;;7.90;6.03;;;23.30;99.90;;;;;;6187424;23;20399;-77
2023/08/19 00:31:39;;;;;;;10.03;6.27;;;23.30;99.90;;;;;;6188756;23;20412;-75
2023/08/19 00:34:05;;;;;;;9.87;6.20;;;23.30;99.90;;;;;;6166481;23;20373;-75
2023/08/19 00:36:34;;;;;;;8.87;6.03;;;23.20;99.90;;;;;;6210961;23;20372;-75
2023/08/19 00:39:08;;;;;;;6.47;5.87;;;23.20;99.90;;;;;;6209989;23;20404;-77
2023/08/19 00:41:34;;;;;;;9.20;6.77;;;23.20;99.90;;;;;;6160641;23;20469;-74
2023/08/19 00:44:03;;;;;;;6.53;5.40;;;23.10;99.90;;;;;;6185166;23;20377;-77
2023/08/19 00:46:31;;;;;;;9.20;6.03;;;23.10;99.90;;;;;;6185847;23;20156;-76
2023/08/19 00:49:00;;;;;;;7.17;6.07;;;23.10;99.90;;;;;;6212543;23;20373;-74
2023/08/19 00:51:27;;;;;;;8.10;5.80;;;23.00;99.90;;;;;;6236727;23;20395;-76
2023/08/19 00:53:54;;;;;;;6.00;5.50;;;23.00;99.90;;;;;;6164115;23;20380;-75
2023/08/19 00:56:20;;;;;;;5.33;4.83;;;23.00;99.90;;;;;;6150770;23;20398;-75
2023/08/19 00:58:48;;;;;;;6.07;5.50;;;22.90;99.90;;;;;;6147941;23;20796;-74
2023/08/19 01:01:13;;;;;;;7.70;5.67;;;22.90;99.90;;;;;;6126165;23;20397;-75
2023/08/19 01:03:40;;;;;;;6.80;5.53;;;22.90;99.90;;;;;;6125236;23;20410;-74
2023/08/19 01:06:12;;;;;;;12.93;5.80;;;22.80;99.90;;;;;;6125581;23;20159;-74
2023/08/19 01:08:49;;;;;;;6.23;5.53;;;22.80;99.90;;;;;;6123640;23;20669;-75
2023/08/19 01:11:22;;;;;;;6.50;5.40;;;22.80;99.90;;;;;;6123943;23;20433;-76
2023/08/19 01:14:02;;;;;;;6.40;5.70;;;22.80;99.90;;;;;;6149093;23;20784;-77
2023/08/19 01:16:30;;;;;;;7.37;5.57;;;22.80;99.90;;;;;;6149178;23;20401;-77
2023/08/19 01:18:57;;;;;;;6.70;5.07;;;22.70;99.90;;;;;;6149362;23;20419;-76
2023/08/19 01:21:25;;;;;;;8.80;5.73;;;22.70;99.90;;;;;;6150773;23;20395;-76
2023/08/19 01:23:58;;;;;;;8.33;5.40;;;22.70;99.90;;;;;;6126115;23;20391;-75
2023/08/19 01:26:28;;;;;;;7.63;5.13;;;22.70;99.90;;;;;;6133491;23;20379;-78
2023/08/19 01:28:55;;;;;;;5.80;5.20;;;22.70;99.90;;;;;;6184547;23;20372;-74
2023/08/19 01:31:21;;;;;;;6.57;5.90;;;22.70;99.90;;;;;;6184101;23;20397;-76
2023/08/19 01:33:47;;;;;;;8.67;6.60;;;22.60;99.90;;;;;;6159146;23;20578;-76
2023/08/19 01:36:19;;;;;;;8.27;5.40;;;22.70;99.90;;;;;;6185588;23;20376;-75
2023/08/19 01:39:08;;;;;;;7.03;6.30;;;22.60;99.90;;;;;;6184105;23;20389;-75
2023/08/19 01:41:34;;;;;;;8.20;5.13;;;22.70;99.90;;;;;;6185701;23;20447;-76
2023/08/19 01:44:02;;;;;;;6.30;5.50;;;22.60;99.90;;;;;;6201831;23;20409;-74
2023/08/19 01:46:28;;;;;;;5.83;5.30;;;22.60;99.90;;;;;;6152488;23;20667;-75
2023/08/19 01:48:54;;;;;;;8.27;6.03;;;22.60;99.90;;;;;;6171542;23;20387;-75
2023/08/19 01:51:19;;;;;;;8.30;5.50;;;22.60;99.90;;;;;;6148007;23;20391;-75
2023/08/19 01:53:46;;;;;;;6.37;5.67;;;22.60;99.90;;;;;;6149186;23;20159;-75
2023/08/19 01:56:12;;;;;;;6.03;5.50;;;22.50;99.90;;;;;;6123703;23;20402;-76
2023/08/19 01:58:38;;;;;;;8.90;6.03;;;22.50;99.90;;;;;;6176461;23;20139;-76
2023/08/19 02:01:04;;;;;;;6.30;5.03;;;22.50;99.90;;;;;;6124523;23;20394;-75
2023/08/19 02:03:30;;;;;;;7.87;5.70;;;22.50;99.90;;;;;;6127032;23;20186;-75
2023/08/19 02:05:56;;;;;;;8.90;5.77;;;22.50;99.90;;;;;;6177598;23;20362;-74
2023/08/19 02:08:22;;;;;;;8.90;5.37;;;22.50;99.90;;;;;;6150528;23;20778;-76
2023/08/19 02:10:48;;;;;;;7.00;5.97;;;22.50;99.90;;;;;;6151592;23;20427;-76
2023/08/19 02:13:14;;;;;;;6.07;5.57;;;22.50;99.90;;;;;;6150462;23;20385;-75
2023/08/19 02:15:42;;;;;;;13.20;6.10;;;22.50;99.90;;;;;;6151978;23;20410;-75
2023/08/19 02:18:09;;;;;;;8.97;5.23;;;22.50;99.90;;;;;;6127434;23;20147;-76
2023/08/19 02:20:37;;;;;;;8.47;4.87;;;22.50;99.90;;;;;;6177904;23;20660;-75
2023/08/19 02:23:03;;;;;;;8.50;5.40;;;22.50;99.90;;;;;;6186076;23;20895;-76
2023/08/19 02:25:29;;;;;;;6.30;5.50;;;22.40;99.90;;;;;;6185351;23;20369;-77
2023/08/19 02:27:56;;;;;;;7.40;4.83;;;22.40;99.90;;;;;;6183782;23;20153;-74
2023/08/19 02:30:22;;;;;;;6.80;5.10;;;22.50;99.90;;;;;;6154114;23;20217;-75
2023/08/19 02:32:47;;;;;;;6.30;5.47;;;22.40;99.90;;;;;;6134588;23;20436;-75
2023/08/19 02:35:14;;;;;;;7.20;4.70;;;22.40;99.90;;;;;;6155884;23;20382;-74
2023/08/19 02:37:39;;;;;;;9.30;6.13;;;22.50;99.90;;;;;;6180843;23;20369;-77
2023/08/19 02:40:08;;;;;;;6.10;5.37;;;22.50;99.90;;;;;;6179086;23;20469;-76
2023/08/19 02:42:37;;;;;;;6.23;5.63;;;22.60;99.90;;;;;;6182271;23;20253;-75
2023/08/19 02:45:03;;;;;;;5.30;4.37;;;22.60;99.90;;;;;;6156293;23;20374;-75
2023/08/19 02:47:31;;;;;;;7.10;4.87;;;22.60;99.90;;;;;;6181877;23;20154;-76
2023/08/19 02:50:01;;;;;;;8.30;4.63;;;22.60;99.90;;;;;;6181710;23;20437;-76
2023/08/19 02:52:27;;;;;;;11.10;4.97;;;22.60;99.90;;;;;;6156589;23;20385;-75
2023/08/19 02:54:53;;;;;;;5.33;4.50;;;22.60;99.90;;;;;;6155139;23;20155;-73
2023/08/19 02:57:19;;;;;;;6.37;5.23;;;22.60;99.90;;;;;;6201887;23;20187;-74
2023/08/19 02:59:45;;;;;;;7.43;4.80;;;22.60;99.90;;;;;;6179842;23;20404;-74
2023/08/19 03:02:11;;;;;;;5.80;5.30;;;22.60;99.90;;;;;;6180427;23;20182;-76
2023/08/19 03:04:39;;;;;;;5.37;4.53;;;22.50;99.90;;;;;;6131513;23;20370;-75
2023/08/19 03:07:07;;;;;;;7.10;5.13;;;22.50;99.90;;;;;;6188818;23;20373;-76
2023/08/19 03:09:36;;;;;;;6.30;5.10;;;22.60;99.90;;;;;;6163400;23;20432;-75
2023/08/19 03:12:02;;;;;;;7.37;5.13;;;22.60;99.90;;;;;;6162757;23;20388;-75
2023/08/19 03:14:28;;;;;;;5.63;4.90;;;22.60;99.90;;;;;;6190862;23;20369;-78
2023/08/19 03:16:56;;;;;;;7.17;5.20;;;22.60;99.90;;;;;;6240842;23;20369;-76
2023/08/19 03:19:22;;;;;;;5.70;4.17;;;22.60;99.90;;;;;;6213724;23;20377;-74
2023/08/19 03:21:48;;;;;;;5.47;4.97;;;22.60;99.90;;;;;;6241372;23;20407;-74
2023/08/19 03:24:14;;;;;;;8.70;4.93;;;22.50;99.90;;;;;;6214992;23;20118;-76
2023/08/19 03:26:40;;;;;;;6.00;4.50;;;22.60;99.90;;;;;;6214214;23;20365;-77
2023/08/19 03:29:07;;;;;;;6.30;4.93;;;22.50;99.90;;;;;;6188294;23;20480;-75
2023/08/19 03:31:33;;;;;;;6.30;4.43;;;22.60;99.90;;;;;;6162354;23;20417;-75
2023/08/19 03:33:59;;;;;;;5.27;4.77;;;22.60;99.90;;;;;;6187460;23;20411;-73
2023/08/19 03:36:25;;;;;;;6.77;4.73;;;22.60;99.90;;;;;;6160197;23;20150;-75
2023/08/19 03:38:51;;;;;;;5.73;5.13;;;22.50;99.90;;;;;;6186621;23;20423;-75
2023/08/19 03:41:17;;;;;;;4.90;4.40;;;22.60;99.90;;;;;;6212253;23;20498;-74
2023/08/19 03:43:44;;;;;;;6.00;4.30;;;22.50;99.90;;;;;;6211920;23;20173;-76
2023/08/19 03:46:10;;;;;;;5.97;4.30;;;22.50;99.90;;;;;;6183850;23;20369;-75
2023/08/19 03:48:35;;;;;;;7.90;4.87;;;22.50;99.90;;;;;;6193932;23;20237;-74
2023/08/19 03:51:01;;;;;;;6.00;5.13;;;22.50;99.90;;;;;;6219784;23;20393;-75
2023/08/19 03:53:28;;;;;;;5.97;4.27;;;22.40;99.90;;;;;;6206456;23;20431;-75
2023/08/19 03:55:53;;;;;;;4.90;4.50;;;22.40;99.90;;;;;;6211810;23;20150;-74
2023/08/19 03:58:19;;;;;;;5.80;4.60;;;22.40;99.90;;;;;;6187233;23;20465;-75
2023/08/19 04:00:47;;;;;;;5.23;4.20;;;22.40;99.90;;;;;;6211645;23;20248;-74
2023/08/19 04:03:14;;;;;;;5.23;4.10;;;22.30;99.90;;;;;;6169579;23;20409;-75
2023/08/19 04:05:40;;;;;;;6.53;5.17;;;22.40;99.90;;;;;;6193668;23;20448;-74
2023/08/19 04:08:05;;;;;;;5.37;4.67;;;22.40;99.90;;;;;;6194942;23;20268;-73
2023/08/19 04:10:31;;;;;;;5.07;4.43;;;22.40;99.90;;;;;;6169996;23;20205;-75
2023/08/19 04:12:57;;;;;;;5.07;3.90;;;22.30;99.90;;;;;;6168943;23;20339;-73
2023/08/19 04:15:23;;;;;;;4.40;4.00;;;22.30;99.90;;;;;;6194304;23;20369;-74
2023/08/19 04:17:49;;;;;;;4.90;4.40;;;22.30;99.90;;;;;;6220562;23;20165;-74
2023/08/19 04:20:14;;;;;;;6.13;4.40;;;22.20;99.90;;;;;;6221013;23;20158;-75
2023/08/19 04:22:40;;;;;;;4.23;3.47;;;22.30;99.90;;;;;;6221485;23;20217;-74
2023/08/19 04:25:07;;;;;;;4.10;3.80;;;22.20;99.90;;;;;;6194457;23;20161;-74
2023/08/19 04:27:32;;;;;;;5.33;4.73;;;22.20;99.90;;;;;;6218702;23;20444;-73
2023/08/19 04:29:58;;;;;;;6.43;4.70;;;22.20;99.90;;;;;;6191915;23;20427;-73
2023/08/19 04:32:24;;;;;;;5.83;4.57;;;22.20;99.90;;;;;;6192238;23;20365;-73
2023/08/19 04:34:50;;;;;;;6.07;5.30;;;22.10;99.90;;;;;;6192736;23;20380;-75
2023/08/19 04:37:16;;;;;;;7.37;4.27;;;22.20;99.90;;;;;;6193032;23;20416;-76
2023/08/19 04:39:42;;;;;;;5.27;4.80;;;22.10;99.90;;;;;;6192855;23;20401;-73
2023/08/19 04:42:12;;;;;;;6.63;4.90;;;22.10;99.90;;;;;;6191389;23;20185;-76
2023/08/19 04:44:38;;;;;;;6.87;5.10;;;22.10;99.90;;;;;;6192954;23;20806;-73
2023/08/19 04:47:04;;;;;;;5.33;4.23;;;22.10;99.90;;;;;;6168846;23;20165;-74
2023/08/19 04:49:30;;;;;;;4.80;4.27;;;22.10;99.90;;;;;;6192262;23;20142;-76
2023/08/19 04:51:56;;;;;;;10.30;5.27;;;22.10;99.90;;;;;;6192623;23;20377;-75
2023/08/19 04:54:21;;;;;;;7.77;4.70;;;22.10;99.90;;;;;;6192980;23;20146;-74
2023/08/19 04:56:48;;;;;;;5.43;4.30;;;22.20;99.90;;;;;;6219280;23;20142;-75
2023/08/19 04:59:14;;;;;;;5.23;4.40;;;22.20;99.90;;;;;;6217814;23;20130;-76
2023/08/19 05:01:40;;;;;;;5.43;4.93;;;22.20;99.90;;;;;;6218870;23;20431;-74
2023/08/19 05:04:06;;;;;;;5.60;4.20;;;22.30;99.90;;;;;;6198768;23;20369;-75
2023/08/19 05:06:32;;;;;;;6.10;4.83;;;22.40;99.90;;;;;;6168149;23;20424;-74
2023/08/19 05:08:57;;;;;;;8.50;4.53;;;22.50;99.90;;;;;;6192335;23;20165;-76
2023/08/19 05:11:23;;;;;;;6.70;4.43;;;22.60;99.90;;;;;;6192433;23;20190;-77
2023/08/19 05:13:51;;;;;;;6.03;5.43;;;22.60;99.90;;;;;;6192008;23;20414;-74
2023/08/19 05:16:17;;;;;;;6.47;4.97;;;22.70;99.90;;;;;;6192345;23;20448;-75
2023/08/19 05:18:43;;;;;;;6.43;4.60;;;22.80;99.90;;;;;;6192493;23;20219;-75
2023/08/19 05:21:08;;;;;;;5.53;4.37;;;22.90;99.90;;;;;;6219188;23;20161;-74
2023/08/19 05:23:34;;;;;;;8.33;4.77;;;22.90;99.90;;;;;;6192443;23;20173;-74
2023/08/19 05:25:59;;;;;;;5.20;4.43;;;23.10;99.90;;;;;;6192478;23;20158;-74
2023/08/19 05:28:25;;;;;;;7.60;4.53;;;23.20;99.90;;;;;;6218677;23;20134;-75
2023/08/19 05:30:50;;;;;;;4.87;4.23;;;23.30;99.90;;;;;;6192889;23;20161;-75
2023/08/19 05:33:16;;;;;;;6.40;3.70;;;23.40;99.90;;;;;;6218601;23;20138;-75
2023/08/19 05:35:41;;;;;;;6.27;4.80;;;23.50;99.90;;;;;;6219286;23;20162;-77
2023/08/19 05:38:07;;;;;;;9.23;4.33;;;23.60;99.90;;;;;;6219103;23;20149;-75
2023/08/19 05:40:32;;;;;;;7.23;4.77;;;23.70;99.90;;;;;;6219182;23;20178;-74
2023/08/19 05:42:58;;;;;;;10.40;5.13;;;23.80;99.90;;;;;;6218744;23;20172;-74
2023/08/19 05:45:24;;;;;;;7.20;5.43;;;23.80;99.90;;;;;;6218961;23;20157;-74
2023/08/19 05:47:49;;;;;;;6.23;4.47;;;23.90;99.90;;;;;;6219049;23;20504;-74
2023/08/19 05:50:15;;;;;;;5.73;4.57;;;24.00;99.90;;;;;;6192209;23;20244;-75
2023/08/19 05:52:41;;;;;;;7.30;4.40;;;24.10;99.90;;;;;;6219266;23;20563;-76
2023/08/19 05:55:06;;;;;;;6.60;4.63;;;24.20;99.90;;;;;;6218671;23;20369;-73
2023/08/19 05:57:32;;;;;;;7.97;4.70;;;24.10;99.90;;;;;;6219595;23;20145;-75
2023/08/19 05:59:58;;;;;;;6.70;3.97;;;24.20;99.90;;;;;;6192587;23;20201;-75
2023/08/19 06:02:23;;;;;;;8.53;4.80;;;24.10;99.90;;;;;;6192620;23;20157;-74
2023/08/19 06:04:49;;;;;;;6.47;4.37;;;24.10;99.90;;;;;;6218904;23;20126;-75
2023/08/19 06:07:19;;;;;;;3.90;3.57;;;24.10;99.90;;;;;;6218843;23;20141;-75
2023/08/19 06:09:44;;;;;;;8.43;4.37;;;24.10;99.90;;;;;;6192502;23;20643;-74
2023/08/19 06:12:10;;;;;;;4.20;3.80;;;24.20;99.90;;;;;;6218780;23;20388;-75
2023/08/19 06:14:36;;;;;;;4.70;4.30;;;24.20;99.90;;;;;;6218644;23;20269;-74
2023/08/19 06:17:01;;;;;;;9.90;4.87;;;24.30;99.90;;;;;;6218944;23;20384;-75
2023/08/19 06:19:27;;;;;;;7.33;5.50;;;24.30;99.90;;;;;;6218517;23;20432;-73
2023/08/19 06:21:53;;;;;;;5.60;4.40;;;24.30;99.90;;;;;;6218908;23;20543;-75
2023/08/19 06:24:19;;;;;;;4.70;4.00;;;24.30;99.90;;;;;;6219474;23;20138;-75
2023/08/19 06:26:44;;;;;;;5.07;4.57;;;24.40;99.90;;;;;;6218665;23;20375;-76
2023/08/19 06:29:10;;;;;;;7.63;4.50;;;24.40;99.90;;;;;;6192955;23;20134;-76
2023/08/19 06:31:35;;;;;;;7.70;5.10;;;24.50;99.90;;;;;;6218687;23;20161;-74
2023/08/19 06:34:02;;;;;;;10.23;4.20;;;24.50;99.90;;;;;;6192469;23;20447;-76
2023/08/19 06:36:29;;;;;;;4.40;3.80;;;24.60;99.90;;;;;;6218923;23;20223;-76
2023/08/19 06:39:06;;;;;;;4.73;4.10;;;24.60;99.90;;;;;;6218613;23;20391;-75
2023/08/19 06:41:34;;;;;;;5.10;4.27;;;24.70;99.90;;;;;;6219341;23;20396;-75
2023/08/19 06:44:03;;;;;;;4.97;4.23;;;24.60;99.90;;;;;;6219246;23;20452;-76
2023/08/19 06:46:30;;;;;;;8.07;4.07;;;24.70;99.90;;;;;;6218880;23;20419;-75
2023/08/19 06:48:56;;;;;;;5.40;4.37;;;24.70;99.90;;;;;;6192315;23;20444;-77
2023/08/19 06:51:22;;;;;;;6.50;4.40;;;24.70;99.90;;;;;;6221440;23;20687;-76
2023/08/19 06:53:48;;;;;;;6.20;4.53;;;24.80;99.90;;;;;;6220389;23;20372;-73
2023/08/19 06:56:33;;;;;;;4.73;4.07;;;24.80;99.90;;;;;;6220657;23;20224;-75
2023/08/19 06:59:11;;;;;;;6.77;5.07;;;24.80;99.90;;;;;;6220897;23;20373;-75
2023/08/19 07:01:38;;;;;;;5.83;4.80;;;24.90;99.90;;;;;;6204999;23;20396;-74
2023/08/19 07:04:07;;;;;;;7.73;4.57;;;24.90;99.90;;;;;;6237717;23;20320;-75
2023/08/19 07:06:44;;;;;;;7.33;4.10;;;24.90;99.90;;;;;;6237810;23;20368;-74
2023/08/19 07:09:24;;;;;;;6.53;3.57;;;25.10;99.90;;;;;;6188272;23;20396;-74
2023/08/19 07:11:53;;;;;;;4.93;3.97;;;25.20;99.70;;;;;;6207856;23;20362;-74
2023/08/19 07:14:21;;;;;;;4.90;3.83;;;25.30;98.80;;;;;;6181397;23;20437;-75
2023/08/19 07:16:49;;;;;;;4.70;3.90;;;25.40;97.70;;;;;;6183716;23;20393;-75
2023/08/19 07:19:21;;;;;;;4.73;4.30;;;25.50;97.70;;;;;;6209292;23;20409;-77
2023/08/19 07:21:48;;;;;;;5.10;3.70;;;25.80;96.60;;;;;;6185070;23;20393;-76
2023/08/19 07:24:15;;;;;;;4.63;3.90;;;25.90;95.10;;;;;;6158921;23;20413;-78
2023/08/19 07:26:44;;;;;;;3.60;3.30;;;26.00;94.60;;;;;;6183944;23;20373;-76
2023/08/19 07:29:15;;;;;;;4.43;3.77;;;26.10;94.20;;;;;;6207362;23;20393;-76
2023/08/19 07:31:46;;;;;;;4.40;4.00;;;26.20;92.90;;;;;;6185594;23;20402;-78
2023/08/19 07:34:13;;;;;;;4.00;3.60;;;26.30;92.80;;;;;;6207927;23;20423;-76
2023/08/19 07:36:39;;;;;;;6.00;4.13;;;26.30;92.50;;;;;;6183546;23;20389;-75
2023/08/19 07:39:05;;;;;;;6.30;3.80;;;26.30;92.10;;;;;;6159306;23;20150;-75
2023/08/19 07:41:31;;;;;;;4.57;3.53;;;26.30;92.10;;;;;;6184944;23;20370;-76
2023/08/19 07:43:58;;;;;;;5.03;4.17;;;26.30;92.00;;;;;;6160348;23;20192;-76
2023/08/19 07:46:27;;;;;;;6.77;4.07;;;26.40;92.00;;;;;;6210888;23;20859;-76
2023/08/19 07:48:53;;;;;;;4.87;3.93;;;26.50;91.70;;;;;;6159493;23;20364;-76
2023/08/19 07:51:22;;;;;;;4.73;3.90;;;26.60;90.90;;;;;;6208543;23;20402;-78
2023/08/19 07:53:48;;;;;;;8.33;4.10;;;26.80;90.70;;;;;;6210174;23;20683;-77
2023/08/19 07:56:17;;;;;;;5.67;3.60;;;27.10;88.30;;;;;;6184584;23;20345;-76
2023/08/19 07:58:44;;;;;;;8.80;4.10;;;27.20;86.80;;;;;;6209697;23;20166;-74
2023/08/19 08:01:10;;;;;;;7.33;3.60;;;27.40;85.50;;;;;;6183086;23;20409;-77
2023/08/19 08:03:40;;;;;;;5.43;3.83;;;27.60;82.90;;;;;;6187149;23;20393;-78
2023/08/19 08:06:08;;;;;;;4.40;3.97;;;27.70;81.20;;;;;;6186163;23;20158;-75
2023/08/19 08:08:36;;;;;;;6.63;4.13;;;27.70;81.00;;;;;;6186703;23;20380;-77
2023/08/19 08:11:03;;;;;;;5.03;3.77;;;27.70;81.00;;;;;;6156714;23;20448;-75
2023/08/19 08:13:31;;;;;;;7.13;3.80;;;27.80;79.60;;;;;;6126264;23;20144;-76
2023/08/19 08:15:58;;;;;;;8.47;4.40;;;27.90;78.60;;;;;;6123823;23;20511;-75
2023/08/19 08:18:24;;;;;;;9.40;3.80;;;27.80;78.00;;;;;;6099440;23;20361;-75
2023/08/19 08:20:52;;;;;;;6.00;4.00;;;27.70;78.10;;;;;;6143510;23;20462;-77
2023/08/19 08:23:18;;;;;;;5.73;4.67;;;27.90;78.10;;;;;;6129038;23;20881;-75
2023/08/19 08:25:45;;;;;;;5.53;4.13;;;27.80;78.50;;;;;;6154433;23;20151;-75
2023/08/19 08:28:12;;;;;;;5.97;3.90;;;27.70;78.70;;;;;;6129544;23;20371;-76
2023/08/19 08:30:38;;;;;;;9.13;3.93;;;27.60;79.90;;;;;;6130566;23;20377;-76
2023/08/19 08:33:04;;;;;;;4.53;4.10;;;27.50;79.60;;;;;;6154445;23;20150;-78
2023/08/19 08:35:31;;;;;;;6.10;3.70;;;27.50;81.70;;;;;;6130188;23;20163;-76
2023/08/19 08:37:57;;;;;;;4.60;4.00;;;27.50;81.20;;;;;;6154764;23;20367;-76
2023/08/19 08:40:24;;;;;;;4.27;3.90;;;27.70;81.00;;;;;;6106644;23;20430;-77
2023/08/19 08:42:53;;;;;;;5.93;3.60;;;27.70;80.70;;;;;;6096014;23;20476;-79
2023/08/19 08:45:31;;;;;;;4.30;3.50;;;27.90;80.80;;;;;;6095910;23;20436;-76
2023/08/19 08:48:18;;;;;;;5.13;4.23;;;28.00;81.30;;;;;;6100392;23;20384;-77
2023/08/19 08:50:45;;;;;;;8.00;4.00;;;28.10;79.90;;;;;;6105413;23;20443;-76
2023/08/19 08:53:22;;;;;;;4.90;3.70;;;28.10;78.50;;;;;;6091152;23;20768;-77
2023/08/19 08:55:58;;;;;;;5.60;3.67;;;28.40;78.60;;;;;;6075277;23;20478;-76
2023/08/19 08:58:25;;;;;;;6.07;3.50;;;28.30;77.70;;;;;;6074142;23;20408;-77
2023/08/19 09:01:05;;;;;;;5.93;4.40;;;28.40;77.60;;;;;;6119297;23;20762;-77
2023/08/19 09:03:37;;;;;;;5.03;4.50;;;28.60;76.20;;;;;;6072032;23;20431;-76
2023/08/19 09:06:18;;;;;;;3.33;3.03;;;28.80;75.80;;;;;;6072589;23;20416;-77
2023/08/19 09:09:20;;;;;;;4.27;3.77;;;29.00;75.10;;;;;;6071723;23;20634;-77
2023/08/19 09:11:55;;;;;;;3.80;3.47;;;29.10;73.00;;;;;;6005513;24;20376;-77
2023/08/19 09:14:33;;;;;;;4.63;3.57;;;29.30;72.70;;;;;;5982247;24;20388;-78
2023/08/19 09:17:03;;;;;;;5.27;3.80;;;29.50;71.70;;;;;;6006016;24;20706;-77
2023/08/19 09:19:29;;;;;;;8.70;3.70;;;29.50;70.60;;;;;;5981702;24;20440;-78
2023/08/19 09:22:26;;;;;;;6.63;4.40;;;29.70;70.20;;;;;;6007132;23;20394;-77
2023/08/19 09:25:16;;;;;;;4.40;4.00;;;29.80;69.50;;;;;;6043198;23;20410;-77
2023/08/19 09:27:47;;;;;;;5.30;4.03;;;29.90;69.10;;;;;;5955439;24;20396;-76
2023/08/19 09:30:20;;;;;;;4.07;3.60;;;30.00;68.30;;;;;;5955350;24;20393;-77
2023/08/19 09:32:47;;;;;;;7.67;5.47;;;30.10;67.40;;;;;;5978028;24;20385;-75
2023/08/19 09:35:38;;;;;;;4.90;4.43;;;30.20;67.70;;;;;;5956094;24;20394;-77
2023/08/19 09:38:19;;;;;;;5.37;4.00;;;30.40;67.30;;;;;;5956701;24;20443;-78
2023/08/19 09:43:57;;;;;;;5.37;4.23;;;30.90;65.60;;;;;;6198218;23;20408;-77
2023/08/19 09:46:32;;;;;;;7.73;4.73;;;31.00;64.30;;;;;;6137267;23;20368;-77
2023/08/19 09:49:23;;;;;;;4.83;4.00;;;31.10;63.50;;;;;;6185629;23;20401;-78
2023/08/19 09:52:30;;;;;;;10.33;5.00;;;31.10;63.20;;;;;;6187467;23;20354;-77
2023/08/19 09:55:04;;;;;;;4.70;4.30;;;31.10;62.40;;;;;;6138043;23;20467;-77
2023/08/19 09:57:34;;;;;;;7.60;4.60;;;31.00;62.60;;;;;;6161525;23;20437;-77
2023/08/19 10:02:37;;;;;;;4.00;3.70;;;30.90;63.10;;;;;;6183008;23;20488;-77
2023/08/19 10:05:13;;;;;;;3.73;3.40;;;30.90;63.20;;;;;;6178456;23;20397;-77
2023/08/19 10:07:45;;;;;;;5.13;4.70;;;31.10;62.90;;;;;;6156003;23;20346;-76
2023/08/19 10:10:13;;;;;;;6.57;4.77;;;31.10;62.50;;;;;;6154381;23;20388;-77
2023/08/19 10:12:44;;;;;;;5.07;4.50;;;31.00;62.20;;;;;;6180104;23;20438;-77
2023/08/19 10:15:13;;;;;;;5.73;4.70;;;31.00;62.00;;;;;;6155564;23;20375;-78
2023/08/19 10:17:51;;;;;;;5.13;4.40;;;30.90;62.40;;;;;;6157904;23;20363;-77
2023/08/19 10:20:26;;;;;;;4.60;4.10;;;31.10;62.80;;;;;;6181352;23;20410;-78
2023/08/19 10:23:02;;;;;;;6.27;4.10;;;31.30;62.50;;;;;;6135258;23;20366;-78
2023/08/19 10:25:30;;;;;;;5.53;4.50;;;31.50;61.90;;;;;;6134264;23;20382;-75
2023/08/19 10:28:27;;;;;;;6.27;4.83;;;31.70;60.70;;;;;;6134305;23;20351;-78
2023/08/19 10:31:07;;;;;;;5.57;4.93;;;31.70;59.80;;;;;;6157013;23;20417;-78
2023/08/19 10:33:41;;;;;;;4.93;4.10;;;31.60;59.80;;;;;;6133768;23;20428;-77
2023/08/19 10:36:09;;;;;;;4.80;4.27;;;31.40;60.30;;;;;;6134296;23;20375;-78
2023/08/19 10:41:40;;;;;;;4.00;3.70;;;31.30;60.20;;;;;;6232527;23;20431;-78
2023/08/19 10:44:13;;;;;;;4.13;3.73;;;31.40;59.80;;;;;;6192668;23;20397;-77
2023/08/19 10:47:18;;;;;;;5.10;4.60;;;31.40;59.80;;;;;;6218220;23;20383;-77
2023/08/19 10:49:48;;;;;;;6.10;5.00;;;31.50;59.40;;;;;;6191862;23;20392;-76
2023/08/19 10:52:21;;;;;;;7.43;4.80;;;31.30;58.70;;;;;;6218015;23;20397;-78
2023/08/19 11:01:20;;;;;;;4.50;4.20;;;31.50;58.80;;;;;;6149476;23;20401;-78
2023/08/19 11:07:21;;;;;;;7.80;6.73;;;31.80;58.20;;;;;;6168432;22;20425;-78
2023/08/19 11:09:51;;;;;;;7.47;6.40;;;31.80;58.70;;;;;;6218744;23;20409;-75
2023/08/19 11:15:08;;;;;;;5.83;5.33;;;32.00;58.40;;;;;;6219815;23;20500;-78
2023/08/19 11:17:36;;;;;;;6.30;5.67;;;32.30;58.40;;;;;;6187461;23;20453;-77
2023/08/19 11:20:17;;;;;;;5.90;5.30;;;32.40;58.60;;;;;;6135018;23;20394;-79
2023/08/19 11:22:59;;;;;;;6.23;5.63;;;32.40;58.50;;;;;;6162098;23;20405;-78
2023/08/19 11:25:35;;;;;;;8.40;6.40;;;32.50;58.60;;;;;;6157792;23;20383;-76
2023/08/19 11:28:06;;;;;;;13.03;7.07;;;32.40;58.40;;;;;;6184773;23;20451;-77
2023/08/19 11:36:21;;;;;;;6.97;6.23;;;31.70;59.40;;;;;;6206035;23;20444;-77
2023/08/19 11:38:49;;;;;;;7.27;5.90;;;31.60;59.80;;;;;;6187820;23;20367;-76
2023/08/19 11:41:15;;;;;;;9.07;7.00;;;31.60;59.90;;;;;;6150570;23;20530;-78
2023/08/19 11:44:05;;;;;;;7.20;6.53;;;31.70;59.80;;;;;;6159012;23;20390;-79
2023/08/19 11:52:21;;;;;;;6.60;6.10;;;31.30;61.10;;;;;;6208134;23;20412;-77
2023/08/19 11:57:55;;;;;;;8.67;6.80;;;31.50;60.90;;;;;;6169254;23;20440;-79
2023/08/19 12:00:37;;;;;;;7.77;7.00;;;31.50;61.00;;;;;;6191244;23;20403;-76
2023/08/19 12:03:24;;;;;;;8.30;7.50;;;31.60;62.10;;;;;;6188147;23;20373;-78
2023/08/19 12:05:56;;;;;;;11.03;7.60;;;31.70;61.00;;;;;;6113991;23;20374;-79
2023/08/19 12:08:31;;;;;;;7.73;7.03;;;31.70;61.10;;;;;;6181136;23;20374;-78
2023/08/19 12:11:06;;;;;;;7.63;6.73;;;32.00;60.80;;;;;;6133278;23;20402;-79
2023/08/19 12:13:56;;;;;;;7.60;6.53;;;32.30;60.00;;;;;;6157837;23;20434;-79
2023/08/19 12:16:27;;;;;;;8.20;7.40;;;32.50;59.70;;;;;;6157681;23;20398;-79
2023/08/19 12:24:42;;;;;;;9.10;7.83;;;31.90;62.50;;;;;;6159317;23;20438;-77
2023/08/19 12:27:10;;;;;;;10.87;8.10;;;31.80;63.80;;;;;;6079608;23;20476;-80
2023/08/19 12:32:27;;;;;;;11.27;8.10;;;31.20;66.30;;;;;;6189130;23;20444;-76
2023/08/19 12:34:56;;;;;;;9.47;8.70;;;31.10;66.80;;;;;;6143849;23;20396;-79
2023/08/19 12:38:09;;;;;;;14.00;9.07;;;31.10;67.30;;;;;;6155734;23;20496;-80
2023/08/19 12:43:31;;;;;;;10.33;9.40;;;30.80;70.40;;;;;;6177850;23;20420;-79
2023/08/19 12:46:15;;;;;;;10.33;9.27;;;30.90;71.20;;;;;;6109212;23;20407;-79
2023/08/19 13:02:34;;;;;;;10.73;9.53;;;30.10;76.10;;;;;;6192852;23;20456;-79
2023/08/19 13:05:08;;;;;;;11.93;10.80;;;30.00;77.50;;;;;;6140250;23;20409;-77
2023/08/19 13:38:16;;;;;;;10.20;9.17;;;28.40;89.90;;;;;;6140717;23;21389;-74
2023/08/19 13:50:58;;;;;;;13.93;11.57;;;27.80;96.00;;;;;;6156331;23;20452;-79
2023/08/19 14:37:17;;;;;;;11.13;9.97;;;24.90;99.90;;;;;;6209234;23;20440;-80
2023/08/19 14:45:24;;;;;;;10.50;9.60;;;24.10;99.90;;;;;;6205931;22;20441;-79
2023/08/19 14:48:04;;;;;;;10.50;9.40;;;24.10;99.90;;;;;;6195697;23;20418;-80
2023/08/19 15:39:42;;;;;;;6.30;5.47;;;27.80;93.30;;;;;;6193299;23;20480;-78
2023/08/19 15:42:19;;;;;;;7.30;6.10;;;27.80;90.70;;;;;;6112738;23;20410;-77
2023/08/19 15:44:51;;;;;;;6.00;5.10;;;27.80;90.60;;;;;;6104725;23;20395;-79
2023/08/19 15:47:25;;;;;;;6.43;5.80;;;27.80;90.10;;;;;;6084352;23;20390;-78
2023/08/19 16:01:02;;;;;;;8.00;5.20;;;27.20;90.30;;;;;;6193231;23;20428;-79
2023/08/19 16:03:32;;;;;;;5.60;5.10;;;27.30;89.10;;;;;;6195834;23;20360;-79
2023/08/19 16:19:14;;;;;;;5.63;5.03;;;27.90;86.70;;;;;;6229941;23;20399;-79
2023/08/19 16:49:48;;;;;;;5.27;4.77;;;27.60;81.20;;;;;;6186802;23;20480;-79
2023/08/19 19:23:39;;;;;;;6.23;5.63;;;24.60;99.90;;;;;;6188506;23;20417;-79
2023/08/19 22:06:21;;;;;;;11.37;8.80;;;22.70;99.90;;;;;;6189834;23;20425;-78
2023/08/19 22:09:08;;;;;;;8.70;7.80;;;22.70;99.90;;;;;;6162470;23;20401;-78
2023/08/19 22:14:54;;;;;;;9.83;7.63;;;22.90;99.90;;;;;;6173884;23;20434;-78
2023/08/19 22:17:41;;;;;;;11.00;9.53;;;22.90;99.90;;;;;;6163135;23;20397;-79
2023/08/19 22:20:11;;;;;;;12.80;11.53;;;23.00;99.90;;;;;;6188361;23;20364;-77
2023/08/19 22:22:39;;;;;;;12.30;11.20;;;23.00;99.90;;;;;;6188289;23;20469;-77
2023/08/19 22:25:07;;;;;;;13.33;11.93;;;23.00;99.90;;;;;;6138803;23;20358;-79
2023/08/19 22:27:56;;;;;;;12.17;10.97;;;23.00;99.90;;;;;;6205472;23;20420;-79
2023/08/19 22:30:31;;;;;;;10.87;9.73;;;22.90;99.90;;;;;;6129749;23;20429;-77